sensor_id;sensor_type;location;lat;lon;timestamp;pressure;altitude;pressure_sealevel;temperature
29423;BMP180;16399;51.686;8.684;2023-07-31T00:02:09;99369.00;;;15.60
29423;BMP180;16399;51.686;8.684;2023-07-31T00:05:11;99359.00;;;15.60
29423;BMP180;16399;51.686;8.684;2023-07-31T00:08:14;99352.00;;;15.60
29423;BMP180;16399;51.686;8.684;2023-07-31T00:11:16;99345.00;;;15.60
29423;BMP180;16399;51.686;8.684;2023-07-31T00:14:18;99341.00;;;15.60
29423;BMP180;16399;51.686;8.684;2023-07-31T00:17:20;99335.00;;;15.60
29423;BMP180;16399;51.686;8.684;2023-07-31T00:20:23;99330.00;;;15.60
29423;BMP180;16399;51.686;8.684;2023-07-31T00:23:25;99328.00;;;15.50
29423;BMP180;16399;51.686;8.684;2023-07-31T00:26:28;99328.00;;;15.50
29423;BMP180;16399;51.686;8.684;2023-07-31T00:29:30;99320.00;;;15.60
29423;BMP180;16399;51.686;8.684;2023-07-31T00:32:32;99325.00;;;15.60
29423;BMP180;16399;51.686;8.684;2023-07-31T00:35:35;99316.00;;;15.50
29423;BMP180;16399;51.686;8.684;2023-07-31T00:38:37;99318.00;;;15.60
29423;BMP180;16399;51.686;8.684;2023-07-31T00:41:39;99299.00;;;15.50
29423;BMP180;16399;51.686;8.684;2023-07-31T00:44:41;99310.00;;;15.50
29423;BMP180;16399;51.686;8.684;2023-07-31T00:47:44;99314.00;;;15.50
29423;BMP180;16399;51.686;8.684;2023-07-31T00:50:46;99298.00;;;15.60
29423;BMP180;16399;51.686;8.684;2023-07-31T00:53:48;99299.00;;;15.60
29423;BMP180;16399;51.686;8.684;2023-07-31T00:56:52;99297.00;;;15.60
29423;BMP180;16399;51.686;8.684;2023-07-31T00:59:55;99295.00;;;15.60
29423;BMP180;16399;51.686;8.684;2023-07-31T01:02:57;99289.00;;;15.60
29423;BMP180;16399;51.686;8.684;2023-07-31T01:06:04;99285.00;;;15.60
29423;BMP180;16399;51.686;8.684;2023-07-31T01:12:24;99283.00;;;15.60
29423;BMP180;16399;51.686;8.684;2023-07-31T01:15:27;99285.00;;;15.60
29423;BMP180;16399;51.686;8.684;2023-07-31T01:18:30;99283.00;;;15.60
29423;BMP180;16399;51.686;8.684;2023-07-31T01:28:09;99284.00;;;15.60
29423;BMP180;16399;51.686;8.684;2023-07-31T01:31:16;99270.00;;;15.60
29423;BMP180;16399;51.686;8.684;2023-07-31T01:34:18;99282.00;;;15.60
29423;BMP180;16399;51.686;8.684;2023-07-31T01:37:20;99284.00;;;15.60
29423;BMP180;16399;51.686;8.684;2023-07-31T01:40:23;99279.00;;;15.60
29423;BMP180;16399;51.686;8.684;2023-07-31T01:43:25;99283.00;;;15.60
29423;BMP180;16399;51.686;8.684;2023-07-31T01:46:27;99284.00;;;15.60
29423;BMP180;16399;51.686;8.684;2023-07-31T01:49:30;99277.00;;;15.60
29423;BMP180;16399;51.686;8.684;2023-07-31T01:52:32;99276.00;;;15.60
29423;BMP180;16399;51.686;8.684;2023-07-31T01:55:34;99270.00;;;15.60
29423;BMP180;16399;51.686;8.684;2023-07-31T01:58:37;99284.00;;;15.60
29423;BMP180;16399;51.686;8.684;2023-07-31T02:01:39;99278.00;;;15.60
29423;BMP180;16399;51.686;8.684;2023-07-31T02:04:41;99270.00;;;15.60
29423;BMP180;16399;51.686;8.684;2023-07-31T02:07:43;99272.00;;;15.60
29423;BMP180;16399;51.686;8.684;2023-07-31T02:10:46;99270.00;;;15.60
29423;BMP180;16399;51.686;8.684;2023-07-31T02:13:48;99275.00;;;15.60
29423;BMP180;16399;51.686;8.684;2023-07-31T02:16:50;99272.00;;;15.60
29423;BMP180;16399;51.686;8.684;2023-07-31T02:19:53;99258.00;;;15.50
29423;BMP180;16399;51.686;8.684;2023-07-31T02:22:55;99268.00;;;15.50
29423;BMP180;16399;51.686;8.684;2023-07-31T02:25:57;99258.00;;;15.50
29423;BMP180;16399;51.686;8.684;2023-07-31T02:28:59;99263.00;;;15.50
29423;BMP180;16399;51.686;8.684;2023-07-31T02:32:02;99251.00;;;15.50
29423;BMP180;16399;51.686;8.684;2023-07-31T02:35:05;99248.00;;;15.50
29423;BMP180;16399;51.686;8.684;2023-07-31T02:38:07;99253.00;;;15.50
29423;BMP180;16399;51.686;8.684;2023-07-31T02:41:09;99244.00;;;15.40
29423;BMP180;16399;51.686;8.684;2023-07-31T02:44:12;99246.00;;;15.40
29423;BMP180;16399;51.686;8.684;2023-07-31T02:47:15;99247.00;;;15.50
29423;BMP180;16399;51.686;8.684;2023-07-31T02:50:18;99252.00;;;15.50
29423;BMP180;16399;51.686;8.684;2023-07-31T02:53:20;99248.00;;;15.50
29423;BMP180;16399;51.686;8.684;2023-07-31T02:56:23;99239.00;;;15.50
29423;BMP180;16399;51.686;8.684;2023-07-31T02:59:25;99247.00;;;15.50
29423;BMP180;16399;51.686;8.684;2023-07-31T03:02:29;99250.00;;;15.50
29423;BMP180;16399;51.686;8.684;2023-07-31T03:05:31;99254.00;;;15.50
29423;BMP180;16399;51.686;8.684;2023-07-31T03:08:33;99248.00;;;15.50
29423;BMP180;16399;51.686;8.684;2023-07-31T03:11:36;99259.00;;;15.50
29423;BMP180;16399;51.686;8.684;2023-07-31T03:14:38;99257.00;;;15.50
29423;BMP180;16399;51.686;8.684;2023-07-31T03:17:40;99257.00;;;15.50
29423;BMP180;16399;51.686;8.684;2023-07-31T03:20:44;99260.00;;;15.50
29423;BMP180;16399;51.686;8.684;2023-07-31T03:23:46;99251.00;;;15.50
29423;BMP180;16399;51.686;8.684;2023-07-31T03:26:49;99250.00;;;15.50
29423;BMP180;16399;51.686;8.684;2023-07-31T03:29:51;99254.00;;;15.40
29423;BMP180;16399;51.686;8.684;2023-07-31T03:32:53;99249.00;;;15.40
29423;BMP180;16399;51.686;8.684;2023-07-31T03:35:55;99240.00;;;15.40
29423;BMP180;16399;51.686;8.684;2023-07-31T03:38:58;99246.00;;;15.40
29423;BMP180;16399;51.686;8.684;2023-07-31T03:42:00;99253.00;;;15.40
29423;BMP180;16399;51.686;8.684;2023-07-31T03:45:03;99242.00;;;15.40
29423;BMP180;16399;51.686;8.684;2023-07-31T03:48:05;99244.00;;;15.40
29423;BMP180;16399;51.686;8.684;2023-07-31T03:51:09;99245.00;;;15.40
29423;BMP180;16399;51.686;8.684;2023-07-31T03:54:11;99245.00;;;15.40
29423;BMP180;16399;51.686;8.684;2023-07-31T03:57:14;99233.00;;;15.40
29423;BMP180;16399;51.686;8.684;2023-07-31T04:00:16;99239.00;;;15.40
29423;BMP180;16399;51.686;8.684;2023-07-31T04:03:19;99237.00;;;15.40
29423;BMP180;16399;51.686;8.684;2023-07-31T04:06:21;99241.00;;;15.40
29423;BMP180;16399;51.686;8.684;2023-07-31T04:09:23;99242.00;;;15.40
29423;BMP180;16399;51.686;8.684;2023-07-31T04:12:26;99257.00;;;15.40
29423;BMP180;16399;51.686;8.684;2023-07-31T04:15:28;99256.00;;;15.40
29423;BMP180;16399;51.686;8.684;2023-07-31T04:18:31;99257.00;;;15.40
29423;BMP180;16399;51.686;8.684;2023-07-31T04:21:34;99263.00;;;15.40
29423;BMP180;16399;51.686;8.684;2023-07-31T04:24:36;99258.00;;;15.40
29423;BMP180;16399;51.686;8.684;2023-07-31T04:27:39;99252.00;;;15.40
29423;BMP180;16399;51.686;8.684;2023-07-31T04:30:41;99252.00;;;15.40
29423;BMP180;16399;51.686;8.684;2023-07-31T04:33:44;99241.00;;;15.50
29423;BMP180;16399;51.686;8.684;2023-07-31T04:36:46;99244.00;;;15.50
29423;BMP180;16399;51.686;8.684;2023-07-31T04:39:49;99244.00;;;15.50
29423;BMP180;16399;51.686;8.684;2023-07-31T04:42:51;99234.00;;;15.50
29423;BMP180;16399;51.686;8.684;2023-07-31T04:45:53;99237.00;;;15.50
29423;BMP180;16399;51.686;8.684;2023-07-31T04:48:56;99240.00;;;15.50
29423;BMP180;16399;51.686;8.684;2023-07-31T04:51:58;99233.00;;;15.40
29423;BMP180;16399;51.686;8.684;2023-07-31T04:55:01;99241.00;;;15.40
29423;BMP180;16399;51.686;8.684;2023-07-31T04:58:04;99237.00;;;15.40
29423;BMP180;16399;51.686;8.684;2023-07-31T05:01:06;99236.00;;;15.50
29423;BMP180;16399;51.686;8.684;2023-07-31T05:04:08;99230.00;;;15.50
29423;BMP180;16399;51.686;8.684;2023-07-31T05:07:10;99231.00;;;15.50
29423;BMP180;16399;51.686;8.684;2023-07-31T05:10:13;99224.00;;;15.50
29423;BMP180;16399;51.686;8.684;2023-07-31T05:13:15;99242.00;;;15.50
29423;BMP180;16399;51.686;8.684;2023-07-31T05:16:17;99230.00;;;15.60
29423;BMP180;16399;51.686;8.684;2023-07-31T05:19:20;99239.00;;;15.60
29423;BMP180;16399;51.686;8.684;2023-07-31T05:22:22;99237.00;;;15.60
29423;BMP180;16399;51.686;8.684;2023-07-31T05:25:24;99230.00;;;15.70
29423;BMP180;16399;51.686;8.684;2023-07-31T05:28:27;99228.00;;;15.70
29423;BMP180;16399;51.686;8.684;2023-07-31T05:31:29;99236.00;;;15.70
29423;BMP180;16399;51.686;8.684;2023-07-31T05:34:33;99226.00;;;15.80
29423;BMP180;16399;51.686;8.684;2023-07-31T05:37:35;99225.00;;;15.80
29423;BMP180;16399;51.686;8.684;2023-07-31T05:40:37;99230.00;;;15.80
29423;BMP180;16399;51.686;8.684;2023-07-31T05:43:40;99235.00;;;15.90
29423;BMP180;16399;51.686;8.684;2023-07-31T05:46:42;99231.00;;;15.90
29423;BMP180;16399;51.686;8.684;2023-07-31T05:49:44;99231.00;;;15.90
29423;BMP180;16399;51.686;8.684;2023-07-31T05:52:47;99236.00;;;15.90
29423;BMP180;16399;51.686;8.684;2023-07-31T05:55:49;99231.00;;;16.00
29423;BMP180;16399;51.686;8.684;2023-07-31T05:58:51;99221.00;;;16.00
29423;BMP180;16399;51.686;8.684;2023-07-31T06:01:54;99231.00;;;16.00
29423;BMP180;16399;51.686;8.684;2023-07-31T06:04:56;99236.00;;;16.00
29423;BMP180;16399;51.686;8.684;2023-07-31T06:07:58;99224.00;;;16.00
29423;BMP180;16399;51.686;8.684;2023-07-31T06:11:00;99218.00;;;16.10
29423;BMP180;16399;51.686;8.684;2023-07-31T06:14:03;99212.00;;;16.10
29423;BMP180;16399;51.686;8.684;2023-07-31T06:17:05;99218.00;;;16.20
29423;BMP180;16399;51.686;8.684;2023-07-31T06:20:08;99213.00;;;16.20
29423;BMP180;16399;51.686;8.684;2023-07-31T06:23:11;99223.00;;;16.30
29423;BMP180;16399;51.686;8.684;2023-07-31T06:26:13;99219.00;;;16.30
29423;BMP180;16399;51.686;8.684;2023-07-31T06:29:15;99213.00;;;16.30
29423;BMP180;16399;51.686;8.684;2023-07-31T06:32:18;99219.00;;;16.30
29423;BMP180;16399;51.686;8.684;2023-07-31T06:35:20;99203.00;;;16.30
29423;BMP180;16399;51.686;8.684;2023-07-31T06:38:24;99201.00;;;16.40
29423;BMP180;16399;51.686;8.684;2023-07-31T06:41:26;99205.00;;;16.40
29423;BMP180;16399;51.686;8.684;2023-07-31T06:44:29;99198.00;;;16.40
29423;BMP180;16399;51.686;8.684;2023-07-31T06:47:31;99189.00;;;16.50
29423;BMP180;16399;51.686;8.684;2023-07-31T06:50:34;99189.00;;;16.50
29423;BMP180;16399;51.686;8.684;2023-07-31T06:53:36;99182.00;;;16.60
29423;BMP180;16399;51.686;8.684;2023-07-31T06:56:38;99184.00;;;16.60
29423;BMP180;16399;51.686;8.684;2023-07-31T06:59:41;99186.00;;;16.60
29423;BMP180;16399;51.686;8.684;2023-07-31T07:02:43;99183.00;;;16.60
29423;BMP180;16399;51.686;8.684;2023-07-31T07:05:46;99177.00;;;16.70
29423;BMP180;16399;51.686;8.684;2023-07-31T07:08:48;99177.00;;;16.60
29423;BMP180;16399;51.686;8.684;2023-07-31T07:11:50;99168.00;;;16.60
29423;BMP180;16399;51.686;8.684;2023-07-31T07:14:53;99178.00;;;16.70
29423;BMP180;16399;51.686;8.684;2023-07-31T07:17:55;99158.00;;;16.60
29423;BMP180;16399;51.686;8.684;2023-07-31T07:20:57;99171.00;;;16.60
29423;BMP180;16399;51.686;8.684;2023-07-31T07:23:59;99165.00;;;16.60
29423;BMP180;16399;51.686;8.684;2023-07-31T07:27:02;99156.00;;;16.60
29423;BMP180;16399;51.686;8.684;2023-07-31T07:30:05;99164.00;;;16.60
29423;BMP180;16399;51.686;8.684;2023-07-31T07:33:07;99150.00;;;16.70
29423;BMP180;16399;51.686;8.684;2023-07-31T07:36:09;99156.00;;;16.70
29423;BMP180;16399;51.686;8.684;2023-07-31T07:39:13;99160.00;;;16.70
29423;BMP180;16399;51.686;8.684;2023-07-31T07:42:16;99164.00;;;16.70
29423;BMP180;16399;51.686;8.684;2023-07-31T07:45:18;99169.00;;;16.70
29423;BMP180;16399;51.686;8.684;2023-07-31T07:48:22;99166.00;;;16.80
29423;BMP180;16399;51.686;8.684;2023-07-31T07:51:26;99179.00;;;16.80
29423;BMP180;16399;51.686;8.684;2023-07-31T07:54:28;99182.00;;;16.80
29423;BMP180;16399;51.686;8.684;2023-07-31T07:57:30;99178.00;;;16.80
29423;BMP180;16399;51.686;8.684;2023-07-31T08:00:33;99181.00;;;16.80
29423;BMP180;16399;51.686;8.684;2023-07-31T08:03:35;99190.00;;;16.80
29423;BMP180;16399;51.686;8.684;2023-07-31T08:06:37;99187.00;;;16.80
29423;BMP180;16399;51.686;8.684;2023-07-31T08:09:40;99159.00;;;16.80
29423;BMP180;16399;51.686;8.684;2023-07-31T08:12:42;99176.00;;;16.80
29423;BMP180;16399;51.686;8.684;2023-07-31T08:15:44;99170.00;;;16.80
29423;BMP180;16399;51.686;8.684;2023-07-31T08:18:47;99167.00;;;16.90
29423;BMP180;16399;51.686;8.684;2023-07-31T08:21:50;99160.00;;;16.90
29423;BMP180;16399;51.686;8.684;2023-07-31T08:24:52;99162.00;;;17.00
29423;BMP180;16399;51.686;8.684;2023-07-31T08:27:54;99152.00;;;17.00
29423;BMP180;16399;51.686;8.684;2023-07-31T08:30:56;99155.00;;;17.00
29423;BMP180;16399;51.686;8.684;2023-07-31T08:33:59;99145.00;;;17.10
29423;BMP180;16399;51.686;8.684;2023-07-31T08:37:01;99148.00;;;17.00
29423;BMP180;16399;51.686;8.684;2023-07-31T08:40:04;99142.00;;;17.10
29423;BMP180;16399;51.686;8.684;2023-07-31T08:43:09;99135.00;;;17.10
29423;BMP180;16399;51.686;8.684;2023-07-31T08:46:11;99131.00;;;17.10
29423;BMP180;16399;51.686;8.684;2023-07-31T08:49:15;99135.00;;;17.20
29423;BMP180;16399;51.686;8.684;2023-07-31T08:52:19;99129.00;;;17.20
29423;BMP180;16399;51.686;8.684;2023-07-31T08:55:21;99130.00;;;17.20
29423;BMP180;16399;51.686;8.684;2023-07-31T08:58:31;99133.00;;;17.20
29423;BMP180;16399;51.686;8.684;2023-07-31T09:01:36;99136.00;;;17.20
29423;BMP180;16399;51.686;8.684;2023-07-31T09:04:39;99133.00;;;17.20
29423;BMP180;16399;51.686;8.684;2023-07-31T09:07:42;99129.00;;;17.20
29423;BMP180;16399;51.686;8.684;2023-07-31T09:10:48;99122.00;;;17.20
29423;BMP180;16399;51.686;8.684;2023-07-31T09:13:51;99117.00;;;17.20
29423;BMP180;16399;51.686;8.684;2023-07-31T09:16:56;99114.00;;;17.20
29423;BMP180;16399;51.686;8.684;2023-07-31T09:20:16;99106.00;;;17.20
29423;BMP180;16399;51.686;8.684;2023-07-31T09:23:19;99109.00;;;17.30
29423;BMP180;16399;51.686;8.684;2023-07-31T09:26:34;99111.00;;;17.40
29423;BMP180;16399;51.686;8.684;2023-07-31T09:29:36;99109.00;;;17.50
29423;BMP180;16399;51.686;8.684;2023-07-31T09:32:39;99100.00;;;17.60
29423;BMP180;16399;51.686;8.684;2023-07-31T09:35:41;99103.00;;;17.60
29423;BMP180;16399;51.686;8.684;2023-07-31T09:38:44;99104.00;;;17.70
29423;BMP180;16399;51.686;8.684;2023-07-31T09:41:56;99097.00;;;17.70
29423;BMP180;16399;51.686;8.684;2023-07-31T09:45:09;99098.00;;;17.70
29423;BMP180;16399;51.686;8.684;2023-07-31T09:48:17;99091.00;;;17.80
29423;BMP180;16399;51.686;8.684;2023-07-31T09:51:26;99084.00;;;17.90
29423;BMP180;16399;51.686;8.684;2023-07-31T09:54:29;99089.00;;;17.90
29423;BMP180;16399;51.686;8.684;2023-07-31T09:57:32;99075.00;;;18.10
29423;BMP180;16399;51.686;8.684;2023-07-31T10:00:35;99083.00;;;18.10
29423;BMP180;16399;51.686;8.684;2023-07-31T10:03:38;99080.00;;;18.30
29423;BMP180;16399;51.686;8.684;2023-07-31T10:06:42;99083.00;;;18.50
29423;BMP180;16399;51.686;8.684;2023-07-31T10:09:46;99073.00;;;18.50
29423;BMP180;16399;51.686;8.684;2023-07-31T10:12:49;99075.00;;;18.60
29423;BMP180;16399;51.686;8.684;2023-07-31T10:15:54;99062.00;;;18.60
29423;BMP180;16399;51.686;8.684;2023-07-31T10:18:59;99056.00;;;18.60
29423;BMP180;16399;51.686;8.684;2023-07-31T10:22:03;99066.00;;;18.60
29423;BMP180;16399;51.686;8.684;2023-07-31T10:25:07;99067.00;;;18.70
29423;BMP180;16399;51.686;8.684;2023-07-31T10:28:10;99062.00;;;18.70
29423;BMP180;16399;51.686;8.684;2023-07-31T10:31:13;99062.00;;;18.70
29423;BMP180;16399;51.686;8.684;2023-07-31T10:34:16;99062.00;;;18.70
29423;BMP180;16399;51.686;8.684;2023-07-31T10:37:24;99064.00;;;18.70
29423;BMP180;16399;51.686;8.684;2023-07-31T10:40:27;99069.00;;;18.70
29423;BMP180;16399;51.686;8.684;2023-07-31T10:43:29;99072.00;;;18.60
29423;BMP180;16399;51.686;8.684;2023-07-31T10:46:33;99074.00;;;18.50
29423;BMP180;16399;51.686;8.684;2023-07-31T10:49:36;99081.00;;;18.40
29423;BMP180;16399;51.686;8.684;2023-07-31T10:52:39;99083.00;;;18.30
29423;BMP180;16399;51.686;8.684;2023-07-31T10:55:43;99083.00;;;18.20
29423;BMP180;16399;51.686;8.684;2023-07-31T10:58:59;99077.00;;;18.10
29423;BMP180;16399;51.686;8.684;2023-07-31T11:01:56;99072.00;;;18.10
29423;BMP180;16399;51.686;8.684;2023-07-31T11:05:07;99061.00;;;18.00
29423;BMP180;16399;51.686;8.684;2023-07-31T11:08:17;99057.00;;;18.10
29423;BMP180;16399;51.686;8.684;2023-07-31T11:11:21;99064.00;;;18.20
29423;BMP180;16399;51.686;8.684;2023-07-31T11:14:23;99065.00;;;18.30
29423;BMP180;16399;51.686;8.684;2023-07-31T11:17:26;99050.00;;;18.30
29423;BMP180;16399;51.686;8.684;2023-07-31T11:20:30;99054.00;;;18.30
29423;BMP180;16399;51.686;8.684;2023-07-31T11:23:32;99051.00;;;18.30
29423;BMP180;16399;51.686;8.684;2023-07-31T11:26:34;99041.00;;;18.40
29423;BMP180;16399;51.686;8.684;2023-07-31T11:29:36;99055.00;;;18.50
29423;BMP180;16399;51.686;8.684;2023-07-31T11:32:39;99050.00;;;18.50
29423;BMP180;16399;51.686;8.684;2023-07-31T11:35:44;99056.00;;;18.60
29423;BMP180;16399;51.686;8.684;2023-07-31T11:38:46;99054.00;;;18.50
29423;BMP180;16399;51.686;8.684;2023-07-31T11:41:49;99048.00;;;18.50
29423;BMP180;16399;51.686;8.684;2023-07-31T11:44:51;99051.00;;;18.50
29423;BMP180;16399;51.686;8.684;2023-07-31T11:47:55;99036.00;;;18.50
29423;BMP180;16399;51.686;8.684;2023-07-31T11:51:05;99041.00;;;18.50
29423;BMP180;16399;51.686;8.684;2023-07-31T11:54:07;99043.00;;;18.60
29423;BMP180;16399;51.686;8.684;2023-07-31T11:57:10;99044.00;;;18.50
29423;BMP180;16399;51.686;8.684;2023-07-31T12:00:13;99033.00;;;18.50
29423;BMP180;16399;51.686;8.684;2023-07-31T12:03:16;99040.00;;;18.50
29423;BMP180;16399;51.686;8.684;2023-07-31T12:06:18;99034.00;;;18.40
29423;BMP180;16399;51.686;8.684;2023-07-31T12:09:22;99033.00;;;18.50
29423;BMP180;16399;51.686;8.684;2023-07-31T12:12:25;99029.00;;;18.50
29423;BMP180;16399;51.686;8.684;2023-07-31T12:15:32;99026.00;;;18.50
29423;BMP180;16399;51.686;8.684;2023-07-31T12:18:36;99020.00;;;18.60
29423;BMP180;16399;51.686;8.684;2023-07-31T12:21:39;99023.00;;;18.70
29423;BMP180;16399;51.686;8.684;2023-07-31T12:24:43;99012.00;;;18.80
29423;BMP180;16399;51.686;8.684;2023-07-31T12:27:50;99007.00;;;18.90
29423;BMP180;16399;51.686;8.684;2023-07-31T12:30:57;99002.00;;;18.90
29423;BMP180;16399;51.686;8.684;2023-07-31T12:34:03;98998.00;;;19.10
29423;BMP180;16399;51.686;8.684;2023-07-31T12:37:06;99003.00;;;19.10
29423;BMP180;16399;51.686;8.684;2023-07-31T12:40:10;98997.00;;;19.10
29423;BMP180;16399;51.686;8.684;2023-07-31T12:43:14;99009.00;;;19.10
29423;BMP180;16399;51.686;8.684;2023-07-31T12:46:16;99006.00;;;19.10
29423;BMP180;16399;51.686;8.684;2023-07-31T12:49:18;99008.00;;;19.10
29423;BMP180;16399;51.686;8.684;2023-07-31T12:52:21;99018.00;;;19.00
29423;BMP180;16399;51.686;8.684;2023-07-31T12:55:23;99021.00;;;19.00
29423;BMP180;16399;51.686;8.684;2023-07-31T12:58:26;99021.00;;;18.90
29423;BMP180;16399;51.686;8.684;2023-07-31T13:01:28;99013.00;;;19.00
29423;BMP180;16399;51.686;8.684;2023-07-31T13:04:30;99013.00;;;18.90
29423;BMP180;16399;51.686;8.684;2023-07-31T13:07:33;99024.00;;;18.90
29423;BMP180;16399;51.686;8.684;2023-07-31T13:10:35;99013.00;;;18.90
29423;BMP180;16399;51.686;8.684;2023-07-31T13:13:37;99013.00;;;18.80
29423;BMP180;16399;51.686;8.684;2023-07-31T13:16:39;99006.00;;;18.80
29423;BMP180;16399;51.686;8.684;2023-07-31T13:19:42;99010.00;;;18.90
29423;BMP180;16399;51.686;8.684;2023-07-31T13:22:44;99019.00;;;18.90
29423;BMP180;16399;51.686;8.684;2023-07-31T13:25:47;99021.00;;;18.90
29423;BMP180;16399;51.686;8.684;2023-07-31T13:28:49;99018.00;;;18.90
29423;BMP180;16399;51.686;8.684;2023-07-31T13:31:52;99019.00;;;18.90
29423;BMP180;16399;51.686;8.684;2023-07-31T13:34:55;99004.00;;;18.90
29423;BMP180;16399;51.686;8.684;2023-07-31T13:37:57;99001.00;;;19.00
29423;BMP180;16399;51.686;8.684;2023-07-31T13:40:59;99003.00;;;19.10
29423;BMP180;16399;51.686;8.684;2023-07-31T13:44:01;98985.00;;;19.10
29423;BMP180;16399;51.686;8.684;2023-07-31T13:47:04;98990.00;;;19.20
29423;BMP180;16399;51.686;8.684;2023-07-31T13:50:07;98973.00;;;19.30
29423;BMP180;16399;51.686;8.684;2023-07-31T13:53:09;98979.00;;;19.30
29423;BMP180;16399;51.686;8.684;2023-07-31T13:56:11;98970.00;;;19.30
29423;BMP180;16399;51.686;8.684;2023-07-31T13:59:14;98967.00;;;19.30
29423;BMP180;16399;51.686;8.684;2023-07-31T14:02:17;98974.00;;;19.30
29423;BMP180;16399;51.686;8.684;2023-07-31T14:05:20;98970.00;;;19.30
29423;BMP180;16399;51.686;8.684;2023-07-31T14:08:22;98980.00;;;19.30
29423;BMP180;16399;51.686;8.684;2023-07-31T14:11:24;98977.00;;;19.20
29423;BMP180;16399;51.686;8.684;2023-07-31T14:14:27;98967.00;;;19.10
29423;BMP180;16399;51.686;8.684;2023-07-31T14:17:29;98968.00;;;19.00
29423;BMP180;16399;51.686;8.684;2023-07-31T14:20:31;98970.00;;;19.10
29423;BMP180;16399;51.686;8.684;2023-07-31T14:23:34;98961.00;;;19.00
29423;BMP180;16399;51.686;8.684;2023-07-31T14:26:36;98973.00;;;19.00
29423;BMP180;16399;51.686;8.684;2023-07-31T14:29:39;98968.00;;;19.00
29423;BMP180;16399;51.686;8.684;2023-07-31T14:32:41;98972.00;;;18.90
29423;BMP180;16399;51.686;8.684;2023-07-31T14:35:43;98979.00;;;18.90
29423;BMP180;16399;51.686;8.684;2023-07-31T14:38:46;98975.00;;;18.80
29423;BMP180;16399;51.686;8.684;2023-07-31T14:41:48;98974.00;;;18.80
29423;BMP180;16399;51.686;8.684;2023-07-31T14:44:50;98978.00;;;18.80
29423;BMP180;16399;51.686;8.684;2023-07-31T14:47:52;98984.00;;;18.80
29423;BMP180;16399;51.686;8.684;2023-07-31T14:50:55;98981.00;;;18.80
29423;BMP180;16399;51.686;8.684;2023-07-31T14:53:57;98984.00;;;18.90
29423;BMP180;16399;51.686;8.684;2023-07-31T14:56:59;98974.00;;;18.90
29423;BMP180;16399;51.686;8.684;2023-07-31T15:00:02;98968.00;;;18.90
29423;BMP180;16399;51.686;8.684;2023-07-31T15:03:06;98951.00;;;18.90
29423;BMP180;16399;51.686;8.684;2023-07-31T15:06:08;98959.00;;;19.00
29423;BMP180;16399;51.686;8.684;2023-07-31T15:09:10;98958.00;;;19.00
29423;BMP180;16399;51.686;8.684;2023-07-31T15:12:13;98957.00;;;19.00
29423;BMP180;16399;51.686;8.684;2023-07-31T15:15:16;98967.00;;;19.10
29423;BMP180;16399;51.686;8.684;2023-07-31T15:18:18;98958.00;;;19.10
29423;BMP180;16399;51.686;8.684;2023-07-31T15:21:20;98950.00;;;19.10
29423;BMP180;16399;51.686;8.684;2023-07-31T15:24:23;98946.00;;;19.10
29423;BMP180;16399;51.686;8.684;2023-07-31T15:27:25;98946.00;;;19.10
29423;BMP180;16399;51.686;8.684;2023-07-31T15:30:27;98936.00;;;19.10
29423;BMP180;16399;51.686;8.684;2023-07-31T15:33:31;98933.00;;;19.10
29423;BMP180;16399;51.686;8.684;2023-07-31T15:36:34;98933.00;;;19.10
29423;BMP180;16399;51.686;8.684;2023-07-31T15:39:36;98927.00;;;19.10
29423;BMP180;16399;51.686;8.684;2023-07-31T15:42:39;98923.00;;;19.10
29423;BMP180;16399;51.686;8.684;2023-07-31T15:45:42;98931.00;;;19.20
29423;BMP180;16399;51.686;8.684;2023-07-31T15:48:45;98922.00;;;19.20
29423;BMP180;16399;51.686;8.684;2023-07-31T15:51:47;98923.00;;;19.30
29423;BMP180;16399;51.686;8.684;2023-07-31T15:54:50;98912.00;;;19.30
29423;BMP180;16399;51.686;8.684;2023-07-31T15:57:52;98919.00;;;19.30
29423;BMP180;16399;51.686;8.684;2023-07-31T16:00:55;98916.00;;;19.30
29423;BMP180;16399;51.686;8.684;2023-07-31T16:03:57;98908.00;;;19.30
29423;BMP180;16399;51.686;8.684;2023-07-31T16:06:59;98898.00;;;19.30
29423;BMP180;16399;51.686;8.684;2023-07-31T16:10:02;98906.00;;;19.20
29423;BMP180;16399;51.686;8.684;2023-07-31T16:13:04;98890.00;;;19.20
29423;BMP180;16399;51.686;8.684;2023-07-31T16:16:06;98884.00;;;19.20
29423;BMP180;16399;51.686;8.684;2023-07-31T16:19:09;98887.00;;;19.20
29423;BMP180;16399;51.686;8.684;2023-07-31T16:22:11;98878.00;;;19.20
29423;BMP180;16399;51.686;8.684;2023-07-31T16:25:13;98870.00;;;19.20
29423;BMP180;16399;51.686;8.684;2023-07-31T16:28:16;98870.00;;;19.30
29423;BMP180;16399;51.686;8.684;2023-07-31T16:31:18;98866.00;;;19.30
29423;BMP180;16399;51.686;8.684;2023-07-31T16:34:20;98862.00;;;19.30
29423;BMP180;16399;51.686;8.684;2023-07-31T16:37:24;98851.00;;;19.40
29423;BMP180;16399;51.686;8.684;2023-07-31T16:40:27;98845.00;;;19.40
29423;BMP180;16399;51.686;8.684;2023-07-31T16:43:29;98853.00;;;19.40
29423;BMP180;16399;51.686;8.684;2023-07-31T16:46:33;98837.00;;;19.50
29423;BMP180;16399;51.686;8.684;2023-07-31T16:49:35;98827.00;;;19.50
29423;BMP180;16399;51.686;8.684;2023-07-31T16:52:37;98826.00;;;19.60
29423;BMP180;16399;51.686;8.684;2023-07-31T16:55:39;98819.00;;;19.60
29423;BMP180;16399;51.686;8.684;2023-07-31T16:58:42;98813.00;;;19.60
29423;BMP180;16399;51.686;8.684;2023-07-31T17:01:45;98804.00;;;19.60
29423;BMP180;16399;51.686;8.684;2023-07-31T17:04:47;98809.00;;;19.60
29423;BMP180;16399;51.686;8.684;2023-07-31T17:07:49;98802.00;;;19.60
29423;BMP180;16399;51.686;8.684;2023-07-31T17:10:52;98799.00;;;19.60
29423;BMP180;16399;51.686;8.684;2023-07-31T17:13:54;98791.00;;;19.50
29423;BMP180;16399;51.686;8.684;2023-07-31T17:16:56;98780.00;;;19.50
29423;BMP180;16399;51.686;8.684;2023-07-31T17:19:58;98770.00;;;19.50
29423;BMP180;16399;51.686;8.684;2023-07-31T17:23:01;98767.00;;;19.50
29423;BMP180;16399;51.686;8.684;2023-07-31T17:26:03;98772.00;;;19.50
29423;BMP180;16399;51.686;8.684;2023-07-31T17:29:06;98774.00;;;19.50
29423;BMP180;16399;51.686;8.684;2023-07-31T17:32:08;98770.00;;;19.50
29423;BMP180;16399;51.686;8.684;2023-07-31T17:35:11;98765.00;;;19.50
29423;BMP180;16399;51.686;8.684;2023-07-31T17:38:13;98763.00;;;19.50
29423;BMP180;16399;51.686;8.684;2023-07-31T17:41:15;98755.00;;;19.40
29423;BMP180;16399;51.686;8.684;2023-07-31T17:44:17;98752.00;;;19.40